sensor_id;sensor_type;location;lat;lon;timestamp;P1;durP1;ratioP1;P2;durP2;ratioP2
11614;SDS011;5863;52.832;4.758;2023-06-26T00:01:29;11.40;;;7.97;;
11614;SDS011;5863;52.832;4.758;2023-06-26T00:03:57;7.70;;;6.90;;
11614;SDS011;5863;52.832;4.758;2023-06-26T00:06:24;7.55;;;6.68;;
11614;SDS011;5863;52.832;4.758;2023-06-26T00:08:51;8.27;;;6.80;;
11614;SDS011;5863;52.832;4.758;2023-06-26T00:11:18;7.97;;;7.18;;
11614;SDS011;5863;52.832;4.758;2023-06-26T00:13:46;9.45;;;7.60;;
11614;SDS011;5863;52.832;4.758;2023-06-26T00:16:13;8.43;;;7.47;;
11614;SDS011;5863;52.832;4.758;2023-06-26T00:18:40;7.00;;;6.30;;
11614;SDS011;5863;52.832;4.758;2023-06-26T00:21:07;6.25;;;5.65;;
11614;SDS011;5863;52.832;4.758;2023-06-26T00:23:33;6.95;;;4.90;;
11614;SDS011;5863;52.832;4.758;2023-06-26T00:26:02;7.80;;;5.22;;
11614;SDS011;5863;52.832;4.758;2023-06-26T00:28:28;5.55;;;5.05;;
11614;SDS011;5863;52.832;4.758;2023-06-26T00:30:56;5.85;;;4.75;;
11614;SDS011;5863;52.832;4.758;2023-06-26T00:33:23;5.70;;;5.13;;
11614;SDS011;5863;52.832;4.758;2023-06-26T00:35:50;7.72;;;5.60;;
11614;SDS011;5863;52.832;4.758;2023-06-26T00:38:17;7.72;;;5.38;;
11614;SDS011;5863;52.832;4.758;2023-06-26T00:40:43;6.40;;;5.40;;
11614;SDS011;5863;52.832;4.758;2023-06-26T00:43:10;5.90;;;5.28;;
11614;SDS011;5863;52.832;4.758;2023-06-26T00:45:37;6.53;;;5.70;;
11614;SDS011;5863;52.832;4.758;2023-06-26T00:48:05;6.18;;;5.28;;
11614;SDS011;5863;52.832;4.758;2023-06-26T00:50:32;6.43;;;5.10;;
11614;SDS011;5863;52.832;4.758;2023-06-26T00:52:59;7.38;;;5.40;;
11614;SDS011;5863;52.832;4.758;2023-06-26T00:55:26;7.55;;;5.30;;
11614;SDS011;5863;52.832;4.758;2023-06-26T00:57:53;10.98;;;5.32;;
11614;SDS011;5863;52.832;4.758;2023-06-26T01:00:20;7.25;;;5.45;;
11614;SDS011;5863;52.832;4.758;2023-06-26T01:02:47;10.68;;;5.80;;
11614;SDS011;5863;52.832;4.758;2023-06-26T01:05:15;8.93;;;5.25;;
11614;SDS011;5863;52.832;4.758;2023-06-26T01:07:45;11.48;;;5.70;;
11614;SDS011;5863;52.832;4.758;2023-06-26T01:10:13;9.27;;;5.43;;
11614;SDS011;5863;52.832;4.758;2023-06-26T01:12:40;14.38;;;6.18;;
11614;SDS011;5863;52.832;4.758;2023-06-26T01:15:09;10.48;;;5.65;;
11614;SDS011;5863;52.832;4.758;2023-06-26T01:17:36;10.75;;;6.03;;
11614;SDS011;5863;52.832;4.758;2023-06-26T01:20:05;12.60;;;6.53;;
11614;SDS011;5863;52.832;4.758;2023-06-26T01:22:36;11.18;;;6.00;;
11614;SDS011;5863;52.832;4.758;2023-06-26T01:25:12;12.82;;;6.25;;
11614;SDS011;5863;52.832;4.758;2023-06-26T01:27:45;13.23;;;6.80;;
11614;SDS011;5863;52.832;4.758;2023-06-26T01:30:12;11.85;;;6.40;;
11614;SDS011;5863;52.832;4.758;2023-06-26T01:32:41;13.43;;;6.70;;
11614;SDS011;5863;52.832;4.758;2023-06-26T01:35:09;12.90;;;6.72;;
11614;SDS011;5863;52.832;4.758;2023-06-26T01:37:36;14.27;;;6.68;;
11614;SDS011;5863;52.832;4.758;2023-06-26T01:40:03;12.32;;;7.10;;
11614;SDS011;5863;52.832;4.758;2023-06-26T01:42:31;9.30;;;6.00;;
11614;SDS011;5863;52.832;4.758;2023-06-26T01:44:59;15.80;;;7.32;;
11614;SDS011;5863;52.832;4.758;2023-06-26T01:47:29;11.77;;;6.72;;
11614;SDS011;5863;52.832;4.758;2023-06-26T01:50:02;13.63;;;6.78;;
11614;SDS011;5863;52.832;4.758;2023-06-26T01:52:36;11.05;;;6.55;;
11614;SDS011;5863;52.832;4.758;2023-06-26T01:55:09;14.13;;;6.97;;
11614;SDS011;5863;52.832;4.758;2023-06-26T01:57:41;13.90;;;6.93;;
11614;SDS011;5863;52.832;4.758;2023-06-26T02:00:10;10.68;;;7.03;;
11614;SDS011;5863;52.832;4.758;2023-06-26T02:02:40;17.17;;;6.78;;
11614;SDS011;5863;52.832;4.758;2023-06-26T02:05:07;11.68;;;6.47;;
11614;SDS011;5863;52.832;4.758;2023-06-26T02:07:34;11.82;;;6.95;;
11614;SDS011;5863;52.832;4.758;2023-06-26T02:10:00;11.93;;;6.00;;
11614;SDS011;5863;52.832;4.758;2023-06-26T02:12:27;12.40;;;5.80;;
11614;SDS011;5863;52.832;4.758;2023-06-26T02:14:54;15.13;;;6.53;;
11614;SDS011;5863;52.832;4.758;2023-06-26T02:17:22;9.93;;;5.38;;
11614;SDS011;5863;52.832;4.758;2023-06-26T02:19:49;11.60;;;5.63;;
11614;SDS011;5863;52.832;4.758;2023-06-26T02:22:16;8.75;;;5.72;;
11614;SDS011;5863;52.832;4.758;2023-06-26T02:24:43;13.88;;;5.20;;
11614;SDS011;5863;52.832;4.758;2023-06-26T02:27:10;9.50;;;5.70;;
11614;SDS011;5863;52.832;4.758;2023-06-26T02:29:37;11.60;;;5.50;;
11614;SDS011;5863;52.832;4.758;2023-06-26T02:32:04;13.63;;;5.80;;
11614;SDS011;5863;52.832;4.758;2023-06-26T02:34:33;12.18;;;5.70;;
11614;SDS011;5863;52.832;4.758;2023-06-26T02:37:00;12.50;;;6.68;;
11614;SDS011;5863;52.832;4.758;2023-06-26T02:39:27;13.63;;;5.78;;
11614;SDS011;5863;52.832;4.758;2023-06-26T02:41:53;11.00;;;4.75;;
11614;SDS011;5863;52.832;4.758;2023-06-26T02:44:20;14.30;;;6.13;;
11614;SDS011;5863;52.832;4.758;2023-06-26T02:46:47;10.43;;;5.20;;
11614;SDS011;5863;52.832;4.758;2023-06-26T02:49:13;8.90;;;5.05;;
11614;SDS011;5863;52.832;4.758;2023-06-26T02:51:41;11.27;;;5.07;;
11614;SDS011;5863;52.832;4.758;2023-06-26T02:54:08;18.52;;;5.28;;
11614;SDS011;5863;52.832;4.758;2023-06-26T02:56:35;10.63;;;4.88;;
11614;SDS011;5863;52.832;4.758;2023-06-26T02:59:01;10.43;;;5.15;;
11614;SDS011;5863;52.832;4.758;2023-06-26T03:01:28;15.18;;;5.88;;
11614;SDS011;5863;52.832;4.758;2023-06-26T03:03:55;9.60;;;5.00;;
11614;SDS011;5863;52.832;4.758;2023-06-26T03:06:25;10.48;;;5.30;;
11614;SDS011;5863;52.832;4.758;2023-06-26T03:08:53;10.20;;;5.30;;
11614;SDS011;5863;52.832;4.758;2023-06-26T03:11:20;8.80;;;4.72;;
11614;SDS011;5863;52.832;4.758;2023-06-26T03:13:47;10.48;;;4.63;;
11614;SDS011;5863;52.832;4.758;2023-06-26T03:16:13;10.23;;;4.85;;
11614;SDS011;5863;52.832;4.758;2023-06-26T03:18:40;12.38;;;4.68;;
11614;SDS011;5863;52.832;4.758;2023-06-26T03:21:07;11.27;;;4.35;;
11614;SDS011;5863;52.832;4.758;2023-06-26T03:23:35;10.15;;;4.10;;
11614;SDS011;5863;52.832;4.758;2023-06-26T03:26:02;7.97;;;4.57;;
11614;SDS011;5863;52.832;4.758;2023-06-26T03:28:29;8.13;;;3.63;;
11614;SDS011;5863;52.832;4.758;2023-06-26T03:30:57;7.22;;;3.50;;
11614;SDS011;5863;52.832;4.758;2023-06-26T03:33:23;6.47;;;3.47;;
11614;SDS011;5863;52.832;4.758;2023-06-26T03:35:50;6.70;;;3.17;;
11614;SDS011;5863;52.832;4.758;2023-06-26T03:38:17;7.63;;;3.53;;
11614;SDS011;5863;52.832;4.758;2023-06-26T03:40:44;4.53;;;3.13;;
11614;SDS011;5863;52.832;4.758;2023-06-26T03:43:13;8.10;;;3.53;;
11614;SDS011;5863;52.832;4.758;2023-06-26T03:45:40;7.18;;;3.42;;
11614;SDS011;5863;52.832;4.758;2023-06-26T03:48:07;11.63;;;4.30;;
11614;SDS011;5863;52.832;4.758;2023-06-26T03:50:33;8.63;;;3.97;;
11614;SDS011;5863;52.832;4.758;2023-06-26T03:53:00;11.40;;;4.10;;
11614;SDS011;5863;52.832;4.758;2023-06-26T03:55:27;8.80;;;4.47;;
11614;SDS011;5863;52.832;4.758;2023-06-26T03:57:54;9.07;;;4.38;;
11614;SDS011;5863;52.832;4.758;2023-06-26T04:00:22;10.05;;;4.05;;
11614;SDS011;5863;52.832;4.758;2023-06-26T04:02:49;9.60;;;4.25;;
11614;SDS011;5863;52.832;4.758;2023-06-26T04:05:16;9.68;;;3.78;;
11614;SDS011;5863;52.832;4.758;2023-06-26T04:07:43;10.50;;;3.90;;
11614;SDS011;5863;52.832;4.758;2023-06-26T04:10:10;10.38;;;4.18;;
11614;SDS011;5863;52.832;4.758;2023-06-26T04:12:36;10.27;;;3.97;;
11614;SDS011;5863;52.832;4.758;2023-06-26T04:15:03;10.20;;;3.90;;
11614;SDS011;5863;52.832;4.758;2023-06-26T04:17:32;8.88;;;3.80;;
11614;SDS011;5863;52.832;4.758;2023-06-26T04:19:59;8.57;;;3.47;;
11614;SDS011;5863;52.832;4.758;2023-06-26T04:22:25;10.57;;;4.05;;
11614;SDS011;5863;52.832;4.758;2023-06-26T04:24:52;9.18;;;3.85;;
11614;SDS011;5863;52.832;4.758;2023-06-26T04:27:19;10.70;;;3.88;;
11614;SDS011;5863;52.832;4.758;2023-06-26T04:29:46;10.68;;;3.88;;
11614;SDS011;5863;52.832;4.758;2023-06-26T04:32:13;9.50;;;3.72;;
11614;SDS011;5863;52.832;4.758;2023-06-26T04:34:41;10.50;;;3.65;;
11614;SDS011;5863;52.832;4.758;2023-06-26T04:37:08;12.85;;;3.58;;
11614;SDS011;5863;52.832;4.758;2023-06-26T04:39:36;10.07;;;4.05;;
11614;SDS011;5863;52.832;4.758;2023-06-26T04:42:03;5.72;;;3.03;;
11614;SDS011;5863;52.832;4.758;2023-06-26T04:44:31;8.02;;;3.83;;
11614;SDS011;5863;52.832;4.758;2023-06-26T04:46:58;6.68;;;3.53;;
11614;SDS011;5863;52.832;4.758;2023-06-26T04:49:25;9.55;;;3.35;;
11614;SDS011;5863;52.832;4.758;2023-06-26T04:51:54;12.32;;;3.78;;
11614;SDS011;5863;52.832;4.758;2023-06-26T04:54:20;7.72;;;3.20;;
11614;SDS011;5863;52.832;4.758;2023-06-26T04:56:47;8.93;;;3.38;;
11614;SDS011;5863;52.832;4.758;2023-06-26T04:59:14;5.93;;;2.85;;
11614;SDS011;5863;52.832;4.758;2023-06-26T05:01:40;8.40;;;3.90;;
11614;SDS011;5863;52.832;4.758;2023-06-26T05:04:09;6.00;;;3.25;;
11614;SDS011;5863;52.832;4.758;2023-06-26T05:06:35;6.05;;;3.00;;
11614;SDS011;5863;52.832;4.758;2023-06-26T05:09:03;8.70;;;3.08;;
11614;SDS011;5863;52.832;4.758;2023-06-26T05:11:30;7.63;;;2.80;;
11614;SDS011;5863;52.832;4.758;2023-06-26T05:13:57;8.05;;;2.85;;
11614;SDS011;5863;52.832;4.758;2023-06-26T05:16:23;8.18;;;2.70;;
11614;SDS011;5863;52.832;4.758;2023-06-26T05:18:50;5.85;;;2.70;;
11614;SDS011;5863;52.832;4.758;2023-06-26T05:21:17;3.53;;;2.28;;
11614;SDS011;5863;52.832;4.758;2023-06-26T05:23:44;4.70;;;2.65;;
11614;SDS011;5863;52.832;4.758;2023-06-26T05:26:13;6.55;;;2.60;;
11614;SDS011;5863;52.832;4.758;2023-06-26T05:28:40;5.13;;;2.13;;
11614;SDS011;5863;52.832;4.758;2023-06-26T05:31:09;8.70;;;2.80;;
11614;SDS011;5863;52.832;4.758;2023-06-26T05:33:36;6.35;;;2.97;;
11614;SDS011;5863;52.832;4.758;2023-06-26T05:36:05;5.30;;;2.53;;
11614;SDS011;5863;52.832;4.758;2023-06-26T05:38:35;7.63;;;2.70;;
11614;SDS011;5863;52.832;4.758;2023-06-26T05:41:02;8.23;;;3.38;;
11614;SDS011;5863;52.832;4.758;2023-06-26T05:43:30;8.27;;;2.85;;
11614;SDS011;5863;52.832;4.758;2023-06-26T05:45:57;7.70;;;3.00;;
11614;SDS011;5863;52.832;4.758;2023-06-26T05:48:24;9.85;;;2.65;;
11614;SDS011;5863;52.832;4.758;2023-06-26T05:50:51;10.00;;;3.50;;
11614;SDS011;5863;52.832;4.758;2023-06-26T05:53:18;9.05;;;3.08;;
11614;SDS011;5863;52.832;4.758;2023-06-26T05:55:45;6.53;;;3.00;;
11614;SDS011;5863;52.832;4.758;2023-06-26T05:58:13;7.10;;;3.15;;
11614;SDS011;5863;52.832;4.758;2023-06-26T06:00:42;8.90;;;3.00;;
11614;SDS011;5863;52.832;4.758;2023-06-26T06:03:09;6.25;;;2.90;;
11614;SDS011;5863;52.832;4.758;2023-06-26T06:05:36;6.80;;;2.90;;
11614;SDS011;5863;52.832;4.758;2023-06-26T06:08:03;7.95;;;3.42;;
11614;SDS011;5863;52.832;4.758;2023-06-26T06:10:30;6.18;;;3.05;;
11614;SDS011;5863;52.832;4.758;2023-06-26T06:12:56;9.35;;;3.13;;
11614;SDS011;5863;52.832;4.758;2023-06-26T06:15:23;6.85;;;3.00;;
11614;SDS011;5863;52.832;4.758;2023-06-26T06:17:51;6.38;;;3.35;;
11614;SDS011;5863;52.832;4.758;2023-06-26T06:20:18;6.25;;;3.15;;
11614;SDS011;5863;52.832;4.758;2023-06-26T06:22:46;7.82;;;3.25;;
11614;SDS011;5863;52.832;4.758;2023-06-26T06:25:13;8.35;;;3.00;;
11614;SDS011;5863;52.832;4.758;2023-06-26T06:27:40;8.07;;;3.50;;
11614;SDS011;5863;52.832;4.758;2023-06-26T06:30:08;8.02;;;3.30;;
11614;SDS011;5863;52.832;4.758;2023-06-26T06:32:35;6.55;;;3.15;;
11614;SDS011;5863;52.832;4.758;2023-06-26T06:35:04;7.35;;;3.42;;
11614;SDS011;5863;52.832;4.758;2023-06-26T06:37:34;9.70;;;3.13;;
11614;SDS011;5863;52.832;4.758;2023-06-26T06:40:02;6.55;;;3.33;;
11614;SDS011;5863;52.832;4.758;2023-06-26T06:42:29;8.95;;;3.17;;
11614;SDS011;5863;52.832;4.758;2023-06-26T06:44:56;8.60;;;3.13;;
11614;SDS011;5863;52.832;4.758;2023-06-26T06:47:22;8.68;;;3.35;;
11614;SDS011;5863;52.832;4.758;2023-06-26T06:49:49;7.32;;;2.97;;
11614;SDS011;5863;52.832;4.758;2023-06-26T06:52:17;6.65;;;3.00;;
11614;SDS011;5863;52.832;4.758;2023-06-26T06:54:53;8.23;;;3.17;;
11614;SDS011;5863;52.832;4.758;2023-06-26T06:57:23;9.00;;;3.20;;
11614;SDS011;5863;52.832;4.758;2023-06-26T06:59:50;8.32;;;3.40;;
11614;SDS011;5863;52.832;4.758;2023-06-26T07:02:17;6.30;;;2.80;;
11614;SDS011;5863;52.832;4.758;2023-06-26T07:04:44;6.22;;;2.65;;
11614;SDS011;5863;52.832;4.758;2023-06-26T07:07:11;6.78;;;1.85;;
11614;SDS011;5863;52.832;4.758;2023-06-26T07:09:40;6.75;;;2.40;;
11614;SDS011;5863;52.832;4.758;2023-06-26T07:12:07;4.07;;;2.40;;
11614;SDS011;5863;52.832;4.758;2023-06-26T07:14:34;7.10;;;2.70;;
11614;SDS011;5863;52.832;4.758;2023-06-26T07:17:00;5.82;;;2.53;;
11614;SDS011;5863;52.832;4.758;2023-06-26T07:19:27;7.45;;;2.45;;
11614;SDS011;5863;52.832;4.758;2023-06-26T07:21:54;7.97;;;2.50;;
11614;SDS011;5863;52.832;4.758;2023-06-26T07:24:21;5.03;;;2.33;;
11614;SDS011;5863;52.832;4.758;2023-06-26T07:26:49;7.13;;;2.88;;
11614;SDS011;5863;52.832;4.758;2023-06-26T07:29:15;4.82;;;2.45;;
11614;SDS011;5863;52.832;4.758;2023-06-26T07:31:43;8.38;;;2.53;;
11614;SDS011;5863;52.832;4.758;2023-06-26T07:34:10;7.72;;;2.50;;
11614;SDS011;5863;52.832;4.758;2023-06-26T07:36:37;7.80;;;2.40;;
11614;SDS011;5863;52.832;4.758;2023-06-26T07:39:03;5.85;;;2.13;;
11614;SDS011;5863;52.832;4.758;2023-06-26T07:41:30;8.25;;;2.60;;
11614;SDS011;5863;52.832;4.758;2023-06-26T07:43:58;5.30;;;2.15;;
11614;SDS011;5863;52.832;4.758;2023-06-26T07:46:25;8.40;;;2.47;;
11614;SDS011;5863;52.832;4.758;2023-06-26T07:48:51;7.15;;;2.33;;
11614;SDS011;5863;52.832;4.758;2023-06-26T07:51:18;6.13;;;2.50;;
11614;SDS011;5863;52.832;4.758;2023-06-26T07:53:45;5.53;;;2.25;;
11614;SDS011;5863;52.832;4.758;2023-06-26T07:56:12;7.25;;;2.30;;
11614;SDS011;5863;52.832;4.758;2023-06-26T07:58:38;5.75;;;2.42;;
11614;SDS011;5863;52.832;4.758;2023-06-26T08:01:06;10.55;;;2.30;;
11614;SDS011;5863;52.832;4.758;2023-06-26T08:03:33;7.32;;;2.60;;
11614;SDS011;5863;52.832;4.758;2023-06-26T08:06:00;8.73;;;2.20;;
11614;SDS011;5863;52.832;4.758;2023-06-26T08:08:26;8.32;;;2.60;;
11614;SDS011;5863;52.832;4.758;2023-06-26T08:10:53;6.45;;;2.08;;
11614;SDS011;5863;52.832;4.758;2023-06-26T08:13:20;6.43;;;2.33;;
11614;SDS011;5863;52.832;4.758;2023-06-26T08:15:46;7.07;;;2.20;;
11614;SDS011;5863;52.832;4.758;2023-06-26T08:18:14;6.93;;;2.53;;
11614;SDS011;5863;52.832;4.758;2023-06-26T08:20:41;7.80;;;2.65;;
11614;SDS011;5863;52.832;4.758;2023-06-26T08:23:08;7.35;;;2.40;;
11614;SDS011;5863;52.832;4.758;2023-06-26T08:25:35;9.30;;;2.72;;
11614;SDS011;5863;52.832;4.758;2023-06-26T08:28:01;7.18;;;1.92;;
11614;SDS011;5863;52.832;4.758;2023-06-26T08:30:28;6.55;;;2.30;;
11614;SDS011;5863;52.832;4.758;2023-06-26T08:32:55;6.47;;;2.45;;
11614;SDS011;5863;52.832;4.758;2023-06-26T08:35:23;8.30;;;2.95;;
11614;SDS011;5863;52.832;4.758;2023-06-26T08:37:50;7.53;;;2.20;;
11614;SDS011;5863;52.832;4.758;2023-06-26T08:40:19;9.02;;;2.50;;
11614;SDS011;5863;52.832;4.758;2023-06-26T08:42:47;6.60;;;2.50;;
11614;SDS011;5863;52.832;4.758;2023-06-26T08:45:17;7.90;;;2.97;;
11614;SDS011;5863;52.832;4.758;2023-06-26T08:47:44;9.18;;;2.92;;
11614;SDS011;5863;52.832;4.758;2023-06-26T08:50:14;7.30;;;2.47;;
11614;SDS011;5863;52.832;4.758;2023-06-26T08:52:45;8.00;;;2.72;;
11614;SDS011;5863;52.832;4.758;2023-06-26T08:55:19;10.10;;;2.55;;
11614;SDS011;5863;52.832;4.758;2023-06-26T08:57:49;9.55;;;2.33;;
11614;SDS011;5863;52.832;4.758;2023-06-26T09:00:16;9.88;;;2.00;;
11614;SDS011;5863;52.832;4.758;2023-06-26T09:02:44;9.27;;;2.13;;
11614;SDS011;5863;52.832;4.758;2023-06-26T09:05:11;8.73;;;2.50;;
11614;SDS011;5863;52.832;4.758;2023-06-26T09:07:38;9.85;;;2.72;;
11614;SDS011;5863;52.832;4.758;2023-06-26T09:10:07;8.00;;;2.72;;
11614;SDS011;5863;52.832;4.758;2023-06-26T09:12:34;7.03;;;2.55;;
11614;SDS011;5863;52.832;4.758;2023-06-26T09:15:02;5.75;;;2.35;;
11614;SDS011;5863;52.832;4.758;2023-06-26T09:17:30;6.32;;;2.15;;
11614;SDS011;5863;52.832;4.758;2023-06-26T09:19:59;5.53;;;2.35;;
11614;SDS011;5863;52.832;4.758;2023-06-26T09:22:26;5.88;;;2.33;;
11614;SDS011;5863;52.832;4.758;2023-06-26T09:24:53;9.43;;;2.63;;
11614;SDS011;5863;52.832;4.758;2023-06-26T09:27:21;8.32;;;2.13;;
11614;SDS011;5863;52.832;4.758;2023-06-26T09:29:49;6.97;;;2.50;;
11614;SDS011;5863;52.832;4.758;2023-06-26T09:32:16;5.20;;;1.92;;
11614;SDS011;5863;52.832;4.758;2023-06-26T09:34:43;11.52;;;2.42;;
11614;SDS011;5863;52.832;4.758;2023-06-26T09:37:11;6.70;;;2.53;;
11614;SDS011;5863;52.832;4.758;2023-06-26T09:39:39;14.52;;;2.95;;
11614;SDS011;5863;52.832;4.758;2023-06-26T09:42:05;7.65;;;2.30;;
11614;SDS011;5863;52.832;4.758;2023-06-26T09:44:34;6.28;;;2.17;;
11614;SDS011;5863;52.832;4.758;2023-06-26T09:47:01;10.68;;;2.50;;
11614;SDS011;5863;52.832;4.758;2023-06-26T09:49:29;7.15;;;2.60;;
11614;SDS011;5863;52.832;4.758;2023-06-26T09:51:57;6.57;;;2.13;;
11614;SDS011;5863;52.832;4.758;2023-06-26T09:54:27;9.68;;;2.20;;
11614;SDS011;5863;52.832;4.758;2023-06-26T09:56:55;3.67;;;1.73;;
11614;SDS011;5863;52.832;4.758;2023-06-26T09:59:22;9.05;;;2.65;;
11614;SDS011;5863;52.832;4.758;2023-06-26T10:01:58;5.90;;;2.15;;
11614;SDS011;5863;52.832;4.758;2023-06-26T10:04:25;6.35;;;2.22;;
11614;SDS011;5863;52.832;4.758;2023-06-26T10:06:54;6.95;;;2.22;;
11614;SDS011;5863;52.832;4.758;2023-06-26T10:09:22;8.63;;;2.97;;
11614;SDS011;5863;52.832;4.758;2023-06-26T10:11:51;4.88;;;2.00;;
11614;SDS011;5863;52.832;4.758;2023-06-26T10:14:22;8.00;;;2.63;;
11614;SDS011;5863;52.832;4.758;2023-06-26T10:16:52;8.95;;;2.13;;
11614;SDS011;5863;52.832;4.758;2023-06-26T10:19:23;5.50;;;2.10;;
11614;SDS011;5863;52.832;4.758;2023-06-26T10:21:53;8.02;;;2.10;;
11614;SDS011;5863;52.832;4.758;2023-06-26T10:24:21;8.63;;;2.45;;
11614;SDS011;5863;52.832;4.758;2023-06-26T10:26:50;6.22;;;2.40;;
11614;SDS011;5863;52.832;4.758;2023-06-26T10:29:21;7.97;;;2.55;;
11614;SDS011;5863;52.832;4.758;2023-06-26T10:31:50;9.40;;;2.70;;
11614;SDS011;5863;52.832;4.758;2023-06-26T10:34:21;7.70;;;2.22;;
11614;SDS011;5863;52.832;4.758;2023-06-26T10:36:55;6.95;;;1.95;;
11614;SDS011;5863;52.832;4.758;2023-06-26T10:39:25;8.40;;;2.25;;
11614;SDS011;5863;52.832;4.758;2023-06-26T10:41:54;5.90;;;2.03;;
11614;SDS011;5863;52.832;4.758;2023-06-26T10:44:21;7.53;;;2.25;;
11614;SDS011;5863;52.832;4.758;2023-06-26T10:46:48;6.78;;;2.10;;
11614;SDS011;5863;52.832;4.758;2023-06-26T10:49:18;5.72;;;2.28;;
11614;SDS011;5863;52.832;4.758;2023-06-26T10:51:46;7.55;;;1.85;;
11614;SDS011;5863;52.832;4.758;2023-06-26T10:54:14;7.38;;;2.30;;
11614;SDS011;5863;52.832;4.758;2023-06-26T10:56:42;9.27;;;2.50;;
11614;SDS011;5863;52.832;4.758;2023-06-26T10:59:16;4.90;;;1.85;;
11614;SDS011;5863;52.832;4.758;2023-06-26T11:01:45;8.52;;;2.38;;
11614;SDS011;5863;52.832;4.758;2023-06-26T11:04:13;6.82;;;2.33;;
11614;SDS011;5863;52.832;4.758;2023-06-26T11:06:44;5.07;;;1.98;;
11614;SDS011;5863;52.832;4.758;2023-06-26T11:09:14;6.43;;;2.15;;
11614;SDS011;5863;52.832;4.758;2023-06-26T11:12:00;6.50;;;2.00;;
11614;SDS011;5863;52.832;4.758;2023-06-26T11:14:36;8.75;;;2.10;;
11614;SDS011;5863;52.832;4.758;2023-06-26T11:17:03;8.43;;;2.15;;
11614;SDS011;5863;52.832;4.758;2023-06-26T11:19:30;8.52;;;2.13;;
11614;SDS011;5863;52.832;4.758;2023-06-26T11:22:04;6.65;;;2.30;;
11614;SDS011;5863;52.832;4.758;2023-06-26T11:24:32;8.10;;;2.38;;
11614;SDS011;5863;52.832;4.758;2023-06-26T11:27:05;9.85;;;2.90;;
11614;SDS011;5863;52.832;4.758;2023-06-26T11:29:32;7.90;;;1.80;;
11614;SDS011;5863;52.832;4.758;2023-06-26T11:32:00;5.40;;;2.00;;
11614;SDS011;5863;52.832;4.758;2023-06-26T11:34:31;8.43;;;2.20;;
11614;SDS011;5863;52.832;4.758;2023-06-26T11:36:58;6.22;;;2.05;;
11614;SDS011;5863;52.832;4.758;2023-06-26T11:39:29;5.18;;;1.83;;
11614;SDS011;5863;52.832;4.758;2023-06-26T11:41:56;8.43;;;2.30;;
11614;SDS011;5863;52.832;4.758;2023-06-26T11:44:23;7.43;;;2.17;;
11614;SDS011;5863;52.832;4.758;2023-06-26T11:46:53;7.88;;;2.13;;
11614;SDS011;5863;52.832;4.758;2023-06-26T11:49:20;5.65;;;2.10;;
11614;SDS011;5863;52.832;4.758;2023-06-26T11:51:48;7.38;;;2.42;;
11614;SDS011;5863;52.832;4.758;2023-06-26T11:54:15;5.97;;;2.13;;
11614;SDS011;5863;52.832;4.758;2023-06-26T11:56:52;7.07;;;2.17;;
11614;SDS011;5863;52.832;4.758;2023-06-26T11:59:23;7.97;;;2.20;;
11614;SDS011;5863;52.832;4.758;2023-06-26T12:01:50;6.07;;;2.47;;
11614;SDS011;5863;52.832;4.758;2023-06-26T12:04:18;7.90;;;2.00;;
11614;SDS011;5863;52.832;4.758;2023-06-26T12:06:46;8.90;;;2.55;;
11614;SDS011;5863;52.832;4.758;2023-06-26T12:09:14;5.20;;;2.00;;
11614;SDS011;5863;52.832;4.758;2023-06-26T12:11:44;12.00;;;1.98;;
11614;SDS011;5863;52.832;4.758;2023-06-26T12:14:15;10.85;;;2.65;;
11614;SDS011;5863;52.832;4.758;2023-06-26T12:16:44;7.38;;;2.00;;
11614;SDS011;5863;52.832;4.758;2023-06-26T12:19:10;7.18;;;1.88;;
11614;SDS011;5863;52.832;4.758;2023-06-26T12:21:45;9.50;;;2.83;;
11614;SDS011;5863;52.832;4.758;2023-06-26T12:24:17;7.45;;;1.92;;
11614;SDS011;5863;52.832;4.758;2023-06-26T12:26:46;8.45;;;2.50;;
11614;SDS011;5863;52.832;4.758;2023-06-26T12:29:18;5.70;;;2.00;;
11614;SDS011;5863;52.832;4.758;2023-06-26T12:31:45;5.47;;;2.15;;
11614;SDS011;5863;52.832;4.758;2023-06-26T12:34:17;7.55;;;2.08;;
11614;SDS011;5863;52.832;4.758;2023-06-26T12:36:46;7.85;;;2.40;;
11614;SDS011;5863;52.832;4.758;2023-06-26T12:39:15;6.05;;;2.30;;
11614;SDS011;5863;52.832;4.758;2023-06-26T12:41:46;8.30;;;2.13;;
11614;SDS011;5863;52.832;4.758;2023-06-26T12:44:18;8.13;;;2.50;;
11614;SDS011;5863;52.832;4.758;2023-06-26T12:46:46;7.30;;;2.20;;
11614;SDS011;5863;52.832;4.758;2023-06-26T12:49:13;6.13;;;1.95;;
11614;SDS011;5863;52.832;4.758;2023-06-26T12:51:40;6.30;;;2.30;;
11614;SDS011;5863;52.832;4.758;2023-06-26T12:54:08;3.45;;;1.88;;
11614;SDS011;5863;52.832;4.758;2023-06-26T12:56:35;4.95;;;2.30;;
11614;SDS011;5863;52.832;4.758;2023-06-26T12:59:01;9.13;;;2.55;;
11614;SDS011;5863;52.832;4.758;2023-06-26T13:01:29;8.63;;;2.67;;
11614;SDS011;5863;52.832;4.758;2023-06-26T13:03:56;5.90;;;2.30;;
11614;SDS011;5863;52.832;4.758;2023-06-26T13:06:23;5.97;;;2.20;;
11614;SDS011;5863;52.832;4.758;2023-06-26T13:08:49;5.72;;;2.15;;
11614;SDS011;5863;52.832;4.758;2023-06-26T13:11:16;8.93;;;2.35;;
11614;SDS011;5863;52.832;4.758;2023-06-26T13:13:43;10.13;;;2.30;;
11614;SDS011;5863;52.832;4.758;2023-06-26T13:16:10;4.45;;;2.13;;
11614;SDS011;5863;52.832;4.758;2023-06-26T13:18:38;8.00;;;2.28;;
11614;SDS011;5863;52.832;4.758;2023-06-26T13:21:05;6.97;;;2.72;;
11614;SDS011;5863;52.832;4.758;2023-06-26T13:23:32;6.70;;;2.20;;
11614;SDS011;5863;52.832;4.758;2023-06-26T13:25:58;8.52;;;2.30;;
11614;SDS011;5863;52.832;4.758;2023-06-26T13:28:28;6.35;;;2.10;;
11614;SDS011;5863;52.832;4.758;2023-06-26T13:30:54;5.22;;;2.10;;
11614;SDS011;5863;52.832;4.758;2023-06-26T13:33:21;8.30;;;2.17;;
11614;SDS011;5863;52.832;4.758;2023-06-26T13:35:51;10.00;;;2.13;;
11614;SDS011;5863;52.832;4.758;2023-06-26T13:38:18;6.15;;;2.30;;
11614;SDS011;5863;52.832;4.758;2023-06-26T13:40:49;6.55;;;2.03;;
11614;SDS011;5863;52.832;4.758;2023-06-26T13:43:16;4.90;;;2.28;;
11614;SDS011;5863;52.832;4.758;2023-06-26T13:45:42;7.82;;;2.25;;
11614;SDS011;5863;52.832;4.758;2023-06-26T13:48:09;8.95;;;2.97;;
11614;SDS011;5863;52.832;4.758;2023-06-26T13:50:36;6.57;;;2.50;;
11614;SDS011;5863;52.832;4.758;2023-06-26T13:53:04;6.20;;;2.33;;
11614;SDS011;5863;52.832;4.758;2023-06-26T13:55:31;12.35;;;2.05;;
11614;SDS011;5863;52.832;4.758;2023-06-26T13:57:58;6.97;;;2.55;;
11614;SDS011;5863;52.832;4.758;2023-06-26T14:00:29;8.52;;;2.40;;
11614;SDS011;5863;52.832;4.758;2023-06-26T14:02:56;5.63;;;2.30;;
11614;SDS011;5863;52.832;4.758;2023-06-26T14:05:22;7.32;;;2.22;;
11614;SDS011;5863;52.832;4.758;2023-06-26T14:07:49;9.55;;;4.25;;
11614;SDS011;5863;52.832;4.758;2023-06-26T14:10:17;4.90;;;2.25;;
11614;SDS011;5863;52.832;4.758;2023-06-26T14:12:44;7.13;;;2.17;;
11614;SDS011;5863;52.832;4.758;2023-06-26T14:15:11;8.73;;;2.40;;
11614;SDS011;5863;52.832;4.758;2023-06-26T14:17:42;7.68;;;2.40;;
11614;SDS011;5863;52.832;4.758;2023-06-26T14:20:09;7.05;;;2.47;;
11614;SDS011;5863;52.832;4.758;2023-06-26T14:22:40;4.85;;;2.47;;
11614;SDS011;5863;52.832;4.758;2023-06-26T14:25:07;11.68;;;2.40;;
11614;SDS011;5863;52.832;4.758;2023-06-26T14:27:36;6.40;;;2.35;;
11614;SDS011;5863;52.832;4.758;2023-06-26T14:30:03;6.88;;;2.05;;
11614;SDS011;5863;52.832;4.758;2023-06-26T14:32:32;8.13;;;2.50;;
11614;SDS011;5863;52.832;4.758;2023-06-26T14:34:59;9.73;;;2.65;;
11614;SDS011;5863;52.832;4.758;2023-06-26T14:37:26;10.73;;;2.72;;
11614;SDS011;5863;52.832;4.758;2023-06-26T14:39:55;7.07;;;2.63;;
11614;SDS011;5863;52.832;4.758;2023-06-26T14:42:22;6.63;;;2.55;;
11614;SDS011;5863;52.832;4.758;2023-06-26T14:44:50;6.85;;;2.15;;
11614;SDS011;5863;52.832;4.758;2023-06-26T14:47:17;6.05;;;1.90;;
11614;SDS011;5863;52.832;4.758;2023-06-26T14:49:44;5.68;;;2.10;;
11614;SDS011;5863;52.832;4.758;2023-06-26T14:52:12;5.65;;;2.13;;
11614;SDS011;5863;52.832;4.758;2023-06-26T14:54:39;4.63;;;2.10;;
11614;SDS011;5863;52.832;4.758;2023-06-26T14:57:05;7.50;;;2.25;;
11614;SDS011;5863;52.832;4.758;2023-06-26T14:59:32;8.27;;;2.50;;
11614;SDS011;5863;52.832;4.758;2023-06-26T15:02:01;10.43;;;2.10;;